Airfield :
LOGIN :

Register | Disclaimer

   EN    FR    IT 

 










Legend :    VFR   Marginal VFR   IFR   Intensive IFR   Very Intensive IFR
Visi :
Ceiling :
>= 8 km
>= 3000ft
5 to 8 km
1000 to 3000 ft
1500m to 5 km
500 to 1000 ft
800 to 1500m
200 to 500 ft
< 800m
< 200 ft
Symbols :   Thunderstorms  Fog  Heavy snow  Heavy precipitations  Wind > 20 kt
SIGMETs :     Misc.  Thunderstorms  Icing  Turbulence  Mountain Waves  Volcanic Ashes






- Airport Elevation : 138 ft
- IATA code : BIO


LEBB - Bilbao

CURRENT METAR :
  • 160530Z 19010G24KT 140V260 CAVOK 19/08 Q1014 NOSIG

EXPIRED METARs :
  • 160500Z 19010G20KT 140V240 CAVOK 19/08 Q1014 NOSIG
  • 160430Z 19012G23KT 140V230 CAVOK 18/08 Q1014 NOSIG
  • 160400Z 19006KT 120V290 CAVOK 19/08 Q1014 NOSIG
  • 160330Z 19009KT 140V250 CAVOK 19/09 Q1014 NOSIG
  • 160300Z 20010KT 120V260 CAVOK 19/09 Q1014 NOSIG

TAF TAF LEBB
Valid from the 16 at 06:00 until the 17 at 06:00 UTC


160500Z 1606/1706 19012KT CAVOK TX23/1614Z TN14/1706Z
TEMPO 1606/1624 19015G30KT
TEMPO 1703/1706 8000 RA



MET'MAP, your aeronautical weather chart ! - Copyright ORBIFLY December 2007 - Disclaimer

ORBIFLY MET'MAP TEAM :

Programming & Development : Alexandra Zaïnal
Concept & Development : Baudouin d'Aumeries
Co-Development & Prog : Marc-Olivier Méhu
Technical & hardware support : Manuel Goepfert

Contact : metmap@orbifly.com




SOURCES & CREDITS :

   NOAA